<?xml version="1.0" encoding="ISO-8859-1" standalone="yes"?>
<gpx
  xmlns="http://www.topografix.com/GPX/1/1"
  version="1.1" creator="LoadMyTracks/073 http://www.cluetrust.com/LoadMyTracks.html"
  xmlns:xsi="http://www.w3.org/2001/XMLSchema-instance"
  xmlns:gpxdata="http://www.cluetrust.com/XML/GPXDATA/1/0"
  xmlns:geocache="http://www.groundspeak.com/cache/1/0"
  xsi:schemaLocation="http://www.topografix.com/GPX/1/1 http://www.topografix.com/GPX/1/1/gpx.xsd
http://www.cluetrust.com/XML/GPXDATA/1/0 http://www.cluetrust.com/Schemas/gpxdata10.xsd">
<trk>
<name>2010/5/5 8:45:3 GMT</name>
<trkseg>
	<trkpt lat="52.03911667" lon="-1.771681667"><ele>158.000000</ele><time>2010-05-05T08:45:03Z</time></trkpt>
	<trkpt lat="52.03912" lon="-1.771676667"><ele>157.000000</ele><time>2010-05-05T08:45:34Z</time></trkpt>
	<trkpt lat="52.03912333" lon="-1.771671667"><ele>157.000000</ele><time>2010-05-05T08:46:04Z</time></trkpt>
	<trkpt lat="52.03912833" lon="-1.771666667"><ele>157.000000</ele><time>2010-05-05T08:46:34Z</time></trkpt>
	<trkpt lat="52.03912833" lon="-1.77166"><ele>156.000000</ele><time>2010-05-05T08:47:04Z</time></trkpt>
	<trkpt lat="52.03912333" lon="-1.77171"><ele>156.000000</ele><time>2010-05-05T08:47:34Z</time></trkpt>
	<trkpt lat="52.03917333" lon="-1.771666667"><ele>168.000000</ele><time>2010-05-05T08:48:04Z</time></trkpt>
	<trkpt lat="52.03917333" lon="-1.771616667"><ele>172.000000</ele><time>2010-05-05T08:48:34Z</time></trkpt>
	<trkpt lat="52.03916667" lon="-1.771666667"><ele>165.000000</ele><time>2010-05-05T08:49:04Z</time></trkpt>
	<trkpt lat="52.03914833" lon="-1.771661667"><ele>163.000000</ele><time>2010-05-05T08:49:34Z</time></trkpt>
	<trkpt lat="52.03915167" lon="-1.77165"><ele>164.000000</ele><time>2010-05-05T08:50:04Z</time></trkpt>
	<trkpt lat="52.03914833" lon="-1.771651667"><ele>163.000000</ele><time>2010-05-05T08:50:34Z</time></trkpt>
	<trkpt lat="52.039155" lon="-1.771676667"><ele>162.000000</ele><time>2010-05-05T08:51:04Z</time></trkpt>
	<trkpt lat="52.03915667" lon="-1.771678333"><ele>161.000000</ele><time>2010-05-05T08:51:34Z</time></trkpt>
	<trkpt lat="52.03915667" lon="-1.771721667"><ele>156.000000</ele><time>2010-05-05T08:52:04Z</time></trkpt>
	<trkpt lat="52.03912833" lon="-1.771708333"><ele>158.000000</ele><time>2010-05-05T08:52:34Z</time></trkpt>
	<trkpt lat="52.03912833" lon="-1.771675"><ele>159.000000</ele><time>2010-05-05T08:53:04Z</time></trkpt>
	<trkpt lat="52.03912333" lon="-1.771646667"><ele>162.000000</ele><time>2010-05-05T08:53:34Z</time></trkpt>
	<trkpt lat="52.03910833" lon="-1.771731667"><ele>151.000000</ele><time>2010-05-05T08:54:04Z</time></trkpt>
	<trkpt lat="52.03913833" lon="-1.771695"><ele>155.000000</ele><time>2010-05-05T08:54:34Z</time></trkpt>
	<trkpt lat="52.03915167" lon="-1.771653333"><ele>160.000000</ele><time>2010-05-05T08:55:04Z</time></trkpt>
	<trkpt lat="52.03918833" lon="-1.771638333"><ele>163.000000</ele><time>2010-05-05T08:55:34Z</time></trkpt>
	<trkpt lat="52.03917" lon="-1.771628333"><ele>162.000000</ele><time>2010-05-05T08:56:04Z</time></trkpt>
	<trkpt lat="52.03915167" lon="-1.771646667"><ele>160.000000</ele><time>2010-05-05T08:56:34Z</time></trkpt>
	<trkpt lat="52.03914333" lon="-1.771658333"><ele>166.000000</ele><time>2010-05-05T08:57:04Z</time></trkpt>
	<trkpt lat="52.03902333" lon="-1.771658333"><ele>158.000000</ele><time>2010-05-05T08:57:34Z</time></trkpt>
	<trkpt lat="52.03907333" lon="-1.771695"><ele>152.000000</ele><time>2010-05-05T08:58:04Z</time></trkpt>
	<trkpt lat="52.03907167" lon="-1.771695"><ele>152.000000</ele><time>2010-05-05T08:58:34Z</time></trkpt>
	<trkpt lat="52.03910167" lon="-1.771688333"><ele>154.000000</ele><time>2010-05-05T08:59:04Z</time></trkpt>
	<trkpt lat="52.03915" lon="-1.771695"><ele>156.000000</ele><time>2010-05-05T08:59:34Z</time></trkpt>
	<trkpt lat="52.03911333" lon="-1.771688333"><ele>160.000000</ele><time>2010-05-05T09:00:04Z</time></trkpt>
	<trkpt lat="52.03910667" lon="-1.77168"><ele>161.000000</ele><time>2010-05-05T09:00:34Z</time></trkpt>
	<trkpt lat="52.03901" lon="-1.77183"><ele>167.000000</ele><time>2010-05-05T09:01:04Z</time></trkpt>
	<trkpt lat="52.038785" lon="-1.771806667"><ele>162.000000</ele><time>2010-05-05T09:01:34Z</time></trkpt>
	<trkpt lat="52.03858667" lon="-1.771375"><ele>165.000000</ele><time>2010-05-05T09:02:04Z</time></trkpt>
	<trkpt lat="52.03860667" lon="-1.770816667"><ele>164.000000</ele><time>2010-05-05T09:02:34Z</time></trkpt>
	<trkpt lat="52.03854167" lon="-1.770396667"><ele>163.000000</ele><time>2010-05-05T09:03:04Z</time></trkpt>
	<trkpt lat="52.03843" lon="-1.769911667"><ele>151.000000</ele><time>2010-05-05T09:03:34Z</time></trkpt>
	<trkpt lat="52.038195" lon="-1.769448333"><ele>152.000000</ele><time>2010-05-05T09:04:04Z</time></trkpt>
	<trkpt lat="52.03804167" lon="-1.768976667"><ele>155.000000</ele><time>2010-05-05T09:04:34Z</time></trkpt>
	<trkpt lat="52.03782167" lon="-1.76868"><ele>158.000000</ele><time>2010-05-05T09:05:04Z</time></trkpt>
	<trkpt lat="52.037645" lon="-1.768381667"><ele>150.000000</ele><time>2010-05-05T09:05:34Z</time></trkpt>
	<trkpt lat="52.03738333" lon="-1.768175"><ele>159.000000</ele><time>2010-05-05T09:06:04Z</time></trkpt>
	<trkpt lat="52.037255" lon="-1.768045"><ele>165.000000</ele><time>2010-05-05T09:06:34Z</time></trkpt>
	<trkpt lat="52.03700833" lon="-1.767935"><ele>162.000000</ele><time>2010-05-05T09:07:04Z</time></trkpt>
	<trkpt lat="52.03670667" lon="-1.76775"><ele>164.000000</ele><time>2010-05-05T09:07:34Z</time></trkpt>
	<trkpt lat="52.03656167" lon="-1.767713333"><ele>166.000000</ele><time>2010-05-05T09:08:04Z</time></trkpt>
	<trkpt lat="52.03629833" lon="-1.767551667"><ele>169.000000</ele><time>2010-05-05T09:08:34Z</time></trkpt>
	<trkpt lat="52.03605333" lon="-1.767333333"><ele>172.000000</ele><time>2010-05-05T09:09:04Z</time></trkpt>
	<trkpt lat="52.03581333" lon="-1.767231667"><ele>177.000000</ele><time>2010-05-05T09:09:34Z</time></trkpt>
	<trkpt lat="52.0356" lon="-1.767058333"><ele>181.000000</ele><time>2010-05-05T09:10:04Z</time></trkpt>
	<trkpt lat="52.035525" lon="-1.767001667"><ele>182.000000</ele><time>2010-05-05T09:10:34Z</time></trkpt>
	<trkpt lat="52.03513333" lon="-1.766696667"><ele>187.000000</ele><time>2010-05-05T09:11:04Z</time></trkpt>
	<trkpt lat="52.03483667" lon="-1.76649"><ele>191.000000</ele><time>2010-05-05T09:11:34Z</time></trkpt>
	<trkpt lat="52.03484" lon="-1.766486667"><ele>193.000000</ele><time>2010-05-05T09:12:04Z</time></trkpt>
	<trkpt lat="52.03476" lon="-1.766456667"><ele>196.000000</ele><time>2010-05-05T09:12:34Z</time></trkpt>
	<trkpt lat="52.03464" lon="-1.766406667"><ele>198.000000</ele><time>2010-05-05T09:13:04Z</time></trkpt>
	<trkpt lat="52.034565" lon="-1.766351667"><ele>200.000000</ele><time>2010-05-05T09:13:34Z</time></trkpt>
	<trkpt lat="52.03456333" lon="-1.766361667"><ele>200.000000</ele><time>2010-05-05T09:14:04Z</time></trkpt>
	<trkpt lat="52.03452" lon="-1.766325"><ele>201.000000</ele><time>2010-05-05T09:14:34Z</time></trkpt>
	<trkpt lat="52.03433" lon="-1.766128333"><ele>206.000000</ele><time>2010-05-05T09:15:04Z</time></trkpt>
	<trkpt lat="52.03429333" lon="-1.76593"><ele>209.000000</ele><time>2010-05-05T09:15:34Z</time></trkpt>
	<trkpt lat="52.034205" lon="-1.7658"><ele>208.000000</ele><time>2010-05-05T09:16:04Z</time></trkpt>
	<trkpt lat="52.03399167" lon="-1.765755"><ele>207.000000</ele><time>2010-05-05T09:16:34Z</time></trkpt>
	<trkpt lat="52.033695" lon="-1.765791667"><ele>211.000000</ele><time>2010-05-05T09:17:04Z</time></trkpt>
	<trkpt lat="52.03335833" lon="-1.765771667"><ele>209.000000</ele><time>2010-05-05T09:17:34Z</time></trkpt>
	<trkpt lat="52.03302" lon="-1.765786667"><ele>207.000000</ele><time>2010-05-05T09:18:04Z</time></trkpt>
	<trkpt lat="52.03269" lon="-1.765766667"><ele>207.000000</ele><time>2010-05-05T09:18:34Z</time></trkpt>
	<trkpt lat="52.03238" lon="-1.765766667"><ele>210.000000</ele><time>2010-05-05T09:19:04Z</time></trkpt>
	<trkpt lat="52.03206" lon="-1.765708333"><ele>206.000000</ele><time>2010-05-05T09:19:34Z</time></trkpt>
	<trkpt lat="52.03169167" lon="-1.765683333"><ele>208.000000</ele><time>2010-05-05T09:20:04Z</time></trkpt>
	<trkpt lat="52.03147" lon="-1.765688333"><ele>204.000000</ele><time>2010-05-05T09:20:34Z</time></trkpt>
	<trkpt lat="52.03123833" lon="-1.765711667"><ele>199.000000</ele><time>2010-05-05T09:21:04Z</time></trkpt>
	<trkpt lat="52.03094167" lon="-1.76578"><ele>194.000000</ele><time>2010-05-05T09:21:34Z</time></trkpt>
	<trkpt lat="52.03070833" lon="-1.765841667"><ele>194.000000</ele><time>2010-05-05T09:22:04Z</time></trkpt>
	<trkpt lat="52.03051333" lon="-1.765886667"><ele>201.000000</ele><time>2010-05-05T09:22:34Z</time></trkpt>
	<trkpt lat="52.03044167" lon="-1.765723333"><ele>199.000000</ele><time>2010-05-05T09:23:04Z</time></trkpt>
	<trkpt lat="52.03050167" lon="-1.76552"><ele>188.000000</ele><time>2010-05-05T09:23:34Z</time></trkpt>
	<trkpt lat="52.03053833" lon="-1.76548"><ele>187.000000</ele><time>2010-05-05T09:24:04Z</time></trkpt>
	<trkpt lat="52.0307" lon="-1.765315"><ele>191.000000</ele><time>2010-05-05T09:24:34Z</time></trkpt>
	<trkpt lat="52.030945" lon="-1.765053333"><ele>191.000000</ele><time>2010-05-05T09:25:04Z</time></trkpt>
	<trkpt lat="52.03108" lon="-1.76471"><ele>190.000000</ele><time>2010-05-05T09:25:34Z</time></trkpt>
	<trkpt lat="52.03120667" lon="-1.76429"><ele>188.000000</ele><time>2010-05-05T09:26:04Z</time></trkpt>
	<trkpt lat="52.03132667" lon="-1.76389"><ele>186.000000</ele><time>2010-05-05T09:26:34Z</time></trkpt>
	<trkpt lat="52.03141333" lon="-1.763485"><ele>183.000000</ele><time>2010-05-05T09:27:04Z</time></trkpt>
	<trkpt lat="52.0315" lon="-1.763058333"><ele>181.000000</ele><time>2010-05-05T09:27:34Z</time></trkpt>
	<trkpt lat="52.03162667" lon="-1.762608333"><ele>180.000000</ele><time>2010-05-05T09:28:04Z</time></trkpt>
	<trkpt lat="52.03183" lon="-1.762191667"><ele>178.000000</ele><time>2010-05-05T09:28:34Z</time></trkpt>
	<trkpt lat="52.03203167" lon="-1.761835"><ele>179.000000</ele><time>2010-05-05T09:29:04Z</time></trkpt>
	<trkpt lat="52.03217" lon="-1.761456667"><ele>182.000000</ele><time>2010-05-05T09:29:34Z</time></trkpt>
	<trkpt lat="52.03230667" lon="-1.761036667"><ele>183.000000</ele><time>2010-05-05T09:30:04Z</time></trkpt>
	<trkpt lat="52.03237167" lon="-1.760846667"><ele>182.000000</ele><time>2010-05-05T09:30:34Z</time></trkpt>
	<trkpt lat="52.032485" lon="-1.760535"><ele>179.000000</ele><time>2010-05-05T09:31:04Z</time></trkpt>
	<trkpt lat="52.03272667" lon="-1.760323333"><ele>174.000000</ele><time>2010-05-05T09:31:34Z</time></trkpt>
	<trkpt lat="52.03295667" lon="-1.76012"><ele>170.000000</ele><time>2010-05-05T09:32:04Z</time></trkpt>
	<trkpt lat="52.03307333" lon="-1.760033333"><ele>168.000000</ele><time>2010-05-05T09:32:34Z</time></trkpt>
	<trkpt lat="52.03308333" lon="-1.760013333"><ele>170.000000</ele><time>2010-05-05T09:33:04Z</time></trkpt>
	<trkpt lat="52.03308833" lon="-1.759843333"><ele>169.000000</ele><time>2010-05-05T09:33:34Z</time></trkpt>
	<trkpt lat="52.03308667" lon="-1.75947"><ele>168.000000</ele><time>2010-05-05T09:34:04Z</time></trkpt>
	<trkpt lat="52.03317" lon="-1.759065"><ele>167.000000</ele><time>2010-05-05T09:34:34Z</time></trkpt>
	<trkpt lat="52.03325167" lon="-1.758586667"><ele>164.000000</ele><time>2010-05-05T09:35:04Z</time></trkpt>
	<trkpt lat="52.03335" lon="-1.758073333"><ele>161.000000</ele><time>2010-05-05T09:35:34Z</time></trkpt>
	<trkpt lat="52.03344667" lon="-1.757575"><ele>160.000000</ele><time>2010-05-05T09:36:04Z</time></trkpt>
	<trkpt lat="52.03355333" lon="-1.757081667"><ele>163.000000</ele><time>2010-05-05T09:36:34Z</time></trkpt>
	<trkpt lat="52.03360167" lon="-1.75655"><ele>154.000000</ele><time>2010-05-05T09:37:04Z</time></trkpt>
	<trkpt lat="52.03368167" lon="-1.756096667"><ele>146.000000</ele><time>2010-05-05T09:37:34Z</time></trkpt>
	<trkpt lat="52.03353833" lon="-1.75564"><ele>139.000000</ele><time>2010-05-05T09:38:04Z</time></trkpt>
	<trkpt lat="52.03336167" lon="-1.755158333"><ele>136.000000</ele><time>2010-05-05T09:38:34Z</time></trkpt>
	<trkpt lat="52.03319667" lon="-1.754766667"><ele>135.000000</ele><time>2010-05-05T09:39:04Z</time></trkpt>
	<trkpt lat="52.03319167" lon="-1.75462"><ele>137.000000</ele><time>2010-05-05T09:39:34Z</time></trkpt>
	<trkpt lat="52.033245" lon="-1.754506667"><ele>135.000000</ele><time>2010-05-05T09:40:04Z</time></trkpt>
	<trkpt lat="52.03332833" lon="-1.754325"><ele>136.000000</ele><time>2010-05-05T09:40:34Z</time></trkpt>
	<trkpt lat="52.03343167" lon="-1.75412"><ele>133.000000</ele><time>2010-05-05T09:41:04Z</time></trkpt>
	<trkpt lat="52.03360667" lon="-1.753888333"><ele>141.000000</ele><time>2010-05-05T09:41:34Z</time></trkpt>
	<trkpt lat="52.033755" lon="-1.753485"><ele>143.000000</ele><time>2010-05-05T09:42:04Z</time></trkpt>
	<trkpt lat="52.03390167" lon="-1.753051667"><ele>142.000000</ele><time>2010-05-05T09:42:34Z</time></trkpt>
	<trkpt lat="52.03405333" lon="-1.752618333"><ele>139.000000</ele><time>2010-05-05T09:43:04Z</time></trkpt>
	<trkpt lat="52.03424167" lon="-1.752106667"><ele>136.000000</ele><time>2010-05-05T09:43:34Z</time></trkpt>
	<trkpt lat="52.03442333" lon="-1.751633333"><ele>133.000000</ele><time>2010-05-05T09:44:04Z</time></trkpt>
	<trkpt lat="52.03444833" lon="-1.751456667"><ele>129.000000</ele><time>2010-05-05T09:44:34Z</time></trkpt>
	<trkpt lat="52.03444" lon="-1.750965"><ele>130.000000</ele><time>2010-05-05T09:45:04Z</time></trkpt>
	<trkpt lat="52.03446333" lon="-1.750538333"><ele>130.000000</ele><time>2010-05-05T09:45:34Z</time></trkpt>
	<trkpt lat="52.03448" lon="-1.750195"><ele>130.000000</ele><time>2010-05-05T09:46:04Z</time></trkpt>
	<trkpt lat="52.03450333" lon="-1.749881667"><ele>131.000000</ele><time>2010-05-05T09:46:34Z</time></trkpt>
	<trkpt lat="52.03457167" lon="-1.749726667"><ele>127.000000</ele><time>2010-05-05T09:47:04Z</time></trkpt>
	<trkpt lat="52.03466167" lon="-1.74935"><ele>130.000000</ele><time>2010-05-05T09:47:34Z</time></trkpt>
	<trkpt lat="52.034745" lon="-1.749253333"><ele>127.000000</ele><time>2010-05-05T09:48:04Z</time></trkpt>
	<trkpt lat="52.03484833" lon="-1.748881667"><ele>129.000000</ele><time>2010-05-05T09:48:34Z</time></trkpt>
	<trkpt lat="52.034955" lon="-1.748446667"><ele>130.000000</ele><time>2010-05-05T09:49:04Z</time></trkpt>
	<trkpt lat="52.03508833" lon="-1.747983333"><ele>129.000000</ele><time>2010-05-05T09:49:34Z</time></trkpt>
	<trkpt lat="52.03524667" lon="-1.747466667"><ele>128.000000</ele><time>2010-05-05T09:50:04Z</time></trkpt>
	<trkpt lat="52.03538833" lon="-1.74697"><ele>126.000000</ele><time>2010-05-05T09:50:34Z</time></trkpt>
	<trkpt lat="52.03553833" lon="-1.746473333"><ele>124.000000</ele><time>2010-05-05T09:51:04Z</time></trkpt>
	<trkpt lat="52.03569" lon="-1.746"><ele>122.000000</ele><time>2010-05-05T09:51:34Z</time></trkpt>
	<trkpt lat="52.03583" lon="-1.74548"><ele>121.000000</ele><time>2010-05-05T09:52:04Z</time></trkpt>
	<trkpt lat="52.03593333" lon="-1.744958333"><ele>119.000000</ele><time>2010-05-05T09:52:34Z</time></trkpt>
	<trkpt lat="52.03604167" lon="-1.744433333"><ele>119.000000</ele><time>2010-05-05T09:53:04Z</time></trkpt>
	<trkpt lat="52.036135" lon="-1.743931667"><ele>118.000000</ele><time>2010-05-05T09:53:34Z</time></trkpt>
	<trkpt lat="52.03622667" lon="-1.74347"><ele>118.000000</ele><time>2010-05-05T09:54:04Z</time></trkpt>
	<trkpt lat="52.03626667" lon="-1.743475"><ele>118.000000</ele><time>2010-05-05T09:54:34Z</time></trkpt>
	<trkpt lat="52.03651167" lon="-1.743371667"><ele>118.000000</ele><time>2010-05-05T09:55:04Z</time></trkpt>
	<trkpt lat="52.036615" lon="-1.743011667"><ele>118.000000</ele><time>2010-05-05T09:55:34Z</time></trkpt>
	<trkpt lat="52.03669333" lon="-1.742843333"><ele>116.000000</ele><time>2010-05-05T09:56:04Z</time></trkpt>
	<trkpt lat="52.03673667" lon="-1.742781667"><ele>116.000000</ele><time>2010-05-05T09:56:34Z</time></trkpt>
	<trkpt lat="52.03681" lon="-1.742628333"><ele>116.000000</ele><time>2010-05-05T09:57:04Z</time></trkpt>
	<trkpt lat="52.036945" lon="-1.742668333"><ele>115.000000</ele><time>2010-05-05T09:57:34Z</time></trkpt>
	<trkpt lat="52.036965" lon="-1.742693333"><ele>113.000000</ele><time>2010-05-05T09:58:04Z</time></trkpt>
	<trkpt lat="52.03699167" lon="-1.74269"><ele>113.000000</ele><time>2010-05-05T09:58:34Z</time></trkpt>
	<trkpt lat="52.03697833" lon="-1.742696667"><ele>113.000000</ele><time>2010-05-05T09:59:04Z</time></trkpt>
	<trkpt lat="52.03697167" lon="-1.74269"><ele>114.000000</ele><time>2010-05-05T09:59:34Z</time></trkpt>
	<trkpt lat="52.03697167" lon="-1.742706667"><ele>113.000000</ele><time>2010-05-05T10:00:05Z</time></trkpt>
	<trkpt lat="52.03697667" lon="-1.742713333"><ele>112.000000</ele><time>2010-05-05T10:00:35Z</time></trkpt>
	<trkpt lat="52.03698333" lon="-1.742713333"><ele>112.000000</ele><time>2010-05-05T10:01:05Z</time></trkpt>
	<trkpt lat="52.036985" lon="-1.742705"><ele>113.000000</ele><time>2010-05-05T10:01:35Z</time></trkpt>
	<trkpt lat="52.03698333" lon="-1.7427"><ele>113.000000</ele><time>2010-05-05T10:02:05Z</time></trkpt>
	<trkpt lat="52.03698167" lon="-1.742698333"><ele>113.000000</ele><time>2010-05-05T10:02:35Z</time></trkpt>
	<trkpt lat="52.03698167" lon="-1.742695"><ele>113.000000</ele><time>2010-05-05T10:03:05Z</time></trkpt>
	<trkpt lat="52.03698167" lon="-1.742691667"><ele>113.000000</ele><time>2010-05-05T10:03:35Z</time></trkpt>
	<trkpt lat="52.03698167" lon="-1.742693333"><ele>113.000000</ele><time>2010-05-05T10:04:05Z</time></trkpt>
	<trkpt lat="52.03698167" lon="-1.74269"><ele>113.000000</ele><time>2010-05-05T10:04:35Z</time></trkpt>
	<trkpt lat="52.03697667" lon="-1.742683333"><ele>114.000000</ele><time>2010-05-05T10:05:05Z</time></trkpt>
	<trkpt lat="52.03698333" lon="-1.742685"><ele>114.000000</ele><time>2010-05-05T10:05:35Z</time></trkpt>
	<trkpt lat="52.036985" lon="-1.742685"><ele>114.000000</ele><time>2010-05-05T10:06:05Z</time></trkpt>
	<trkpt lat="52.036985" lon="-1.742685"><ele>114.000000</ele><time>2010-05-05T10:06:35Z</time></trkpt>
	<trkpt lat="52.03698333" lon="-1.742688333"><ele>113.000000</ele><time>2010-05-05T10:07:05Z</time></trkpt>
	<trkpt lat="52.03698" lon="-1.742688333"><ele>113.000000</ele><time>2010-05-05T10:07:35Z</time></trkpt>
	<trkpt lat="52.03697833" lon="-1.742686667"><ele>112.000000</ele><time>2010-05-05T10:08:05Z</time></trkpt>
	<trkpt lat="52.03697667" lon="-1.742686667"><ele>112.000000</ele><time>2010-05-05T10:08:35Z</time></trkpt>
	<trkpt lat="52.03697333" lon="-1.742686667"><ele>111.000000</ele><time>2010-05-05T10:09:05Z</time></trkpt>
	<trkpt lat="52.03697" lon="-1.742685"><ele>111.000000</ele><time>2010-05-05T10:09:35Z</time></trkpt>
	<trkpt lat="52.03697" lon="-1.742675"><ele>112.000000</ele><time>2010-05-05T10:10:05Z</time></trkpt>
	<trkpt lat="52.03698" lon="-1.742693333"><ele>113.000000</ele><time>2010-05-05T10:10:35Z</time></trkpt>
	<trkpt lat="52.03693667" lon="-1.7426"><ele>111.000000</ele><time>2010-05-05T10:11:05Z</time></trkpt>
	<trkpt lat="52.03699833" lon="-1.742175"><ele>112.000000</ele><time>2010-05-05T10:11:35Z</time></trkpt>
	<trkpt lat="52.03715833" lon="-1.741776667"><ele>112.000000</ele><time>2010-05-05T10:12:05Z</time></trkpt>
	<trkpt lat="52.03733" lon="-1.741323333"><ele>113.000000</ele><time>2010-05-05T10:12:35Z</time></trkpt>
	<trkpt lat="52.037435" lon="-1.74084"><ele>112.000000</ele><time>2010-05-05T10:13:05Z</time></trkpt>
	<trkpt lat="52.03755167" lon="-1.74031"><ele>112.000000</ele><time>2010-05-05T10:13:35Z</time></trkpt>
	<trkpt lat="52.03772333" lon="-1.739775"><ele>112.000000</ele><time>2010-05-05T10:14:05Z</time></trkpt>
	<trkpt lat="52.03789667" lon="-1.739215"><ele>112.000000</ele><time>2010-05-05T10:14:35Z</time></trkpt>
	<trkpt lat="52.03807833" lon="-1.738658333"><ele>112.000000</ele><time>2010-05-05T10:15:05Z</time></trkpt>
	<trkpt lat="52.03825167" lon="-1.738098333"><ele>111.000000</ele><time>2010-05-05T10:15:35Z</time></trkpt>
	<trkpt lat="52.03842833" lon="-1.737538333"><ele>110.000000</ele><time>2010-05-05T10:16:05Z</time></trkpt>
	<trkpt lat="52.03861167" lon="-1.737038333"><ele>110.000000</ele><time>2010-05-05T10:16:35Z</time></trkpt>
	<trkpt lat="52.03886333" lon="-1.73707"><ele>110.000000</ele><time>2010-05-05T10:17:05Z</time></trkpt>
	<trkpt lat="52.038905" lon="-1.737266667"><ele>110.000000</ele><time>2010-05-05T10:17:35Z</time></trkpt>
	<trkpt lat="52.03896333" lon="-1.737686667"><ele>111.000000</ele><time>2010-05-05T10:18:05Z</time></trkpt>
	<trkpt lat="52.039095" lon="-1.738105"><ele>110.000000</ele><time>2010-05-05T10:18:35Z</time></trkpt>
	<trkpt lat="52.03923333" lon="-1.73839"><ele>110.000000</ele><time>2010-05-05T10:19:05Z</time></trkpt>
	<trkpt lat="52.03923167" lon="-1.738383333"><ele>110.000000</ele><time>2010-05-05T10:19:35Z</time></trkpt>
	<trkpt lat="52.039285" lon="-1.738468333"><ele>110.000000</ele><time>2010-05-05T10:20:05Z</time></trkpt>
	<trkpt lat="52.03941333" lon="-1.738665"><ele>112.000000</ele><time>2010-05-05T10:20:35Z</time></trkpt>
	<trkpt lat="52.03963833" lon="-1.738813333"><ele>113.000000</ele><time>2010-05-05T10:21:05Z</time></trkpt>
	<trkpt lat="52.03983333" lon="-1.738881667"><ele>114.000000</ele><time>2010-05-05T10:21:35Z</time></trkpt>
	<trkpt lat="52.040115" lon="-1.739051667"><ele>115.000000</ele><time>2010-05-05T10:22:05Z</time></trkpt>
	<trkpt lat="52.04027333" lon="-1.739436667"><ele>114.000000</ele><time>2010-05-05T10:22:35Z</time></trkpt>
	<trkpt lat="52.0404" lon="-1.73986"><ele>114.000000</ele><time>2010-05-05T10:23:05Z</time></trkpt>
	<trkpt lat="52.04062" lon="-1.740165"><ele>114.000000</ele><time>2010-05-05T10:23:35Z</time></trkpt>
	<trkpt lat="52.04084167" lon="-1.740403333"><ele>114.000000</ele><time>2010-05-05T10:24:05Z</time></trkpt>
	<trkpt lat="52.04096667" lon="-1.740378333"><ele>118.000000</ele><time>2010-05-05T10:24:35Z</time></trkpt>
	<trkpt lat="52.04117667" lon="-1.740355"><ele>117.000000</ele><time>2010-05-05T10:25:05Z</time></trkpt>
	<trkpt lat="52.041335" lon="-1.740008333"><ele>117.000000</ele><time>2010-05-05T10:25:35Z</time></trkpt>
	<trkpt lat="52.04138167" lon="-1.739503333"><ele>117.000000</ele><time>2010-05-05T10:26:05Z</time></trkpt>
	<trkpt lat="52.04152167" lon="-1.739046667"><ele>117.000000</ele><time>2010-05-05T10:26:35Z</time></trkpt>
	<trkpt lat="52.04178167" lon="-1.738785"><ele>120.000000</ele><time>2010-05-05T10:27:05Z</time></trkpt>
	<trkpt lat="52.042075" lon="-1.738601667"><ele>121.000000</ele><time>2010-05-05T10:27:35Z</time></trkpt>
	<trkpt lat="52.042275" lon="-1.738216667"><ele>119.000000</ele><time>2010-05-05T10:28:05Z</time></trkpt>
	<trkpt lat="52.04216167" lon="-1.737725"><ele>117.000000</ele><time>2010-05-05T10:28:35Z</time></trkpt>
	<trkpt lat="52.04196167" lon="-1.737306667"><ele>117.000000</ele><time>2010-05-05T10:29:05Z</time></trkpt>
	<trkpt lat="52.04192833" lon="-1.737281667"><ele>115.000000</ele><time>2010-05-05T10:29:35Z</time></trkpt>
	<trkpt lat="52.04193167" lon="-1.737263333"><ele>112.000000</ele><time>2010-05-05T10:30:05Z</time></trkpt>
	<trkpt lat="52.041935" lon="-1.73726"><ele>113.000000</ele><time>2010-05-05T10:30:35Z</time></trkpt>
	<trkpt lat="52.04195167" lon="-1.737263333"><ele>116.000000</ele><time>2010-05-05T10:31:05Z</time></trkpt>
	<trkpt lat="52.04195" lon="-1.737261667"><ele>116.000000</ele><time>2010-05-05T10:31:35Z</time></trkpt>
	<trkpt lat="52.04194" lon="-1.737255"><ele>115.000000</ele><time>2010-05-05T10:32:05Z</time></trkpt>
	<trkpt lat="52.04192333" lon="-1.737253333"><ele>114.000000</ele><time>2010-05-05T10:32:35Z</time></trkpt>
	<trkpt lat="52.04194167" lon="-1.737253333"><ele>114.000000</ele><time>2010-05-05T10:33:05Z</time></trkpt>
	<trkpt lat="52.04194" lon="-1.737248333"><ele>114.000000</ele><time>2010-05-05T10:33:35Z</time></trkpt>
	<trkpt lat="52.04193167" lon="-1.737248333"><ele>114.000000</ele><time>2010-05-05T10:34:05Z</time></trkpt>
	<trkpt lat="52.04193167" lon="-1.737248333"><ele>112.000000</ele><time>2010-05-05T10:34:35Z</time></trkpt>
	<trkpt lat="52.04194" lon="-1.73725"><ele>113.000000</ele><time>2010-05-05T10:35:05Z</time></trkpt>
	<trkpt lat="52.041805" lon="-1.737103333"><ele>115.000000</ele><time>2010-05-05T10:35:35Z</time></trkpt>
	<trkpt lat="52.041555" lon="-1.736896667"><ele>119.000000</ele><time>2010-05-05T10:36:05Z</time></trkpt>
	<trkpt lat="52.04145167" lon="-1.736415"><ele>118.000000</ele><time>2010-05-05T10:36:35Z</time></trkpt>
	<trkpt lat="52.04146667" lon="-1.73587"><ele>116.000000</ele><time>2010-05-05T10:37:05Z</time></trkpt>
	<trkpt lat="52.04144167" lon="-1.735501667"><ele>119.000000</ele><time>2010-05-05T10:37:35Z</time></trkpt>
	<trkpt lat="52.04160833" lon="-1.735088333"><ele>113.000000</ele><time>2010-05-05T10:38:05Z</time></trkpt>
	<trkpt lat="52.04161" lon="-1.735061667"><ele>109.000000</ele><time>2010-05-05T10:38:35Z</time></trkpt>
	<trkpt lat="52.04160667" lon="-1.735051667"><ele>109.000000</ele><time>2010-05-05T10:39:05Z</time></trkpt>
	<trkpt lat="52.04177" lon="-1.735451667"><ele>112.000000</ele><time>2010-05-05T10:39:35Z</time></trkpt>
	<trkpt lat="52.04193" lon="-1.735936667"><ele>113.000000</ele><time>2010-05-05T10:40:05Z</time></trkpt>
	<trkpt lat="52.04208167" lon="-1.736426667"><ele>110.000000</ele><time>2010-05-05T10:40:35Z</time></trkpt>
	<trkpt lat="52.04224333" lon="-1.736898333"><ele>112.000000</ele><time>2010-05-05T10:41:05Z</time></trkpt>
	<trkpt lat="52.04237333" lon="-1.73739"><ele>112.000000</ele><time>2010-05-05T10:41:35Z</time></trkpt>
	<trkpt lat="52.04247" lon="-1.737673333"><ele>112.000000</ele><time>2010-05-05T10:42:05Z</time></trkpt>
	<trkpt lat="52.04246333" lon="-1.73779"><ele>110.000000</ele><time>2010-05-05T10:42:35Z</time></trkpt>
	<trkpt lat="52.04262667" lon="-1.738191667"><ele>114.000000</ele><time>2010-05-05T10:43:05Z</time></trkpt>
	<trkpt lat="52.042815" lon="-1.738615"><ele>116.000000</ele><time>2010-05-05T10:43:35Z</time></trkpt>
	<trkpt lat="52.04297167" lon="-1.739016667"><ele>114.000000</ele><time>2010-05-05T10:44:05Z</time></trkpt>
	<trkpt lat="52.04318333" lon="-1.739425"><ele>115.000000</ele><time>2010-05-05T10:44:35Z</time></trkpt>
	<trkpt lat="52.04339" lon="-1.739845"><ele>116.000000</ele><time>2010-05-05T10:45:05Z</time></trkpt>
	<trkpt lat="52.043595" lon="-1.740291667"><ele>119.000000</ele><time>2010-05-05T10:45:35Z</time></trkpt>
	<trkpt lat="52.04378667" lon="-1.740666667"><ele>117.000000</ele><time>2010-05-05T10:46:05Z</time></trkpt>
	<trkpt lat="52.043915" lon="-1.740933333"><ele>112.000000</ele><time>2010-05-05T10:46:35Z</time></trkpt>
	<trkpt lat="52.04411333" lon="-1.741335"><ele>115.000000</ele><time>2010-05-05T10:47:05Z</time></trkpt>
	<trkpt lat="52.04433167" lon="-1.741741667"><ele>119.000000</ele><time>2010-05-05T10:47:35Z</time></trkpt>
	<trkpt lat="52.04459" lon="-1.742118333"><ele>118.000000</ele><time>2010-05-05T10:48:05Z</time></trkpt>
	<trkpt lat="52.04482667" lon="-1.742481667"><ele>116.000000</ele><time>2010-05-05T10:48:35Z</time></trkpt>
	<trkpt lat="52.04505667" lon="-1.742791667"><ele>120.000000</ele><time>2010-05-05T10:49:05Z</time></trkpt>
	<trkpt lat="52.04527667" lon="-1.743145"><ele>121.000000</ele><time>2010-05-05T10:49:35Z</time></trkpt>
	<trkpt lat="52.04549" lon="-1.7435"><ele>123.000000</ele><time>2010-05-05T10:50:05Z</time></trkpt>
	<trkpt lat="52.04573" lon="-1.743818333"><ele>124.000000</ele><time>2010-05-05T10:50:35Z</time></trkpt>
	<trkpt lat="52.04599833" lon="-1.74407"><ele>120.000000</ele><time>2010-05-05T10:51:05Z</time></trkpt>
	<trkpt lat="52.04628833" lon="-1.744245"><ele>121.000000</ele><time>2010-05-05T10:51:35Z</time></trkpt>
	<trkpt lat="52.04659" lon="-1.74439"><ele>121.000000</ele><time>2010-05-05T10:52:05Z</time></trkpt>
	<trkpt lat="52.04689" lon="-1.744483333"><ele>122.000000</ele><time>2010-05-05T10:52:35Z</time></trkpt>
	<trkpt lat="52.0472" lon="-1.744606667"><ele>122.000000</ele><time>2010-05-05T10:53:05Z</time></trkpt>
	<trkpt lat="52.04747333" lon="-1.744723333"><ele>125.000000</ele><time>2010-05-05T10:53:35Z</time></trkpt>
	<trkpt lat="52.04777667" lon="-1.744855"><ele>123.000000</ele><time>2010-05-05T10:54:05Z</time></trkpt>
	<trkpt lat="52.04789" lon="-1.74496"><ele>119.000000</ele><time>2010-05-05T10:54:35Z</time></trkpt>
	<trkpt lat="52.047885" lon="-1.745015"><ele>115.000000</ele><time>2010-05-05T10:55:05Z</time></trkpt>
	<trkpt lat="52.04797167" lon="-1.745425"><ele>115.000000</ele><time>2010-05-05T10:55:35Z</time></trkpt>
	<trkpt lat="52.04805333" lon="-1.745928333"><ele>115.000000</ele><time>2010-05-05T10:56:05Z</time></trkpt>
	<trkpt lat="52.04815667" lon="-1.746458333"><ele>118.000000</ele><time>2010-05-05T10:56:35Z</time></trkpt>
	<trkpt lat="52.04827" lon="-1.7469"><ele>121.000000</ele><time>2010-05-05T10:57:05Z</time></trkpt>
	<trkpt lat="52.04833" lon="-1.747335"><ele>118.000000</ele><time>2010-05-05T10:57:35Z</time></trkpt>
	<trkpt lat="52.04844333" lon="-1.747808333"><ele>121.000000</ele><time>2010-05-05T10:58:05Z</time></trkpt>
	<trkpt lat="52.04838667" lon="-1.748155"><ele>118.000000</ele><time>2010-05-05T10:58:35Z</time></trkpt>
	<trkpt lat="52.04816667" lon="-1.748355"><ele>121.000000</ele><time>2010-05-05T10:59:05Z</time></trkpt>
	<trkpt lat="52.04812833" lon="-1.74881"><ele>117.000000</ele><time>2010-05-05T10:59:35Z</time></trkpt>
	<trkpt lat="52.04805167" lon="-1.74929"><ele>116.000000</ele><time>2010-05-05T11:00:05Z</time></trkpt>
	<trkpt lat="52.04797833" lon="-1.749678333"><ele>117.000000</ele><time>2010-05-05T11:00:35Z</time></trkpt>
	<trkpt lat="52.04790833" lon="-1.750103333"><ele>115.000000</ele><time>2010-05-05T11:01:05Z</time></trkpt>
	<trkpt lat="52.04784833" lon="-1.750545"><ele>113.000000</ele><time>2010-05-05T11:01:35Z</time></trkpt>
	<trkpt lat="52.04776833" lon="-1.750958333"><ele>112.000000</ele><time>2010-05-05T11:02:05Z</time></trkpt>
	<trkpt lat="52.04771333" lon="-1.751313333"><ele>114.000000</ele><time>2010-05-05T11:02:35Z</time></trkpt>
	<trkpt lat="52.04794" lon="-1.751503333"><ele>120.000000</ele><time>2010-05-05T11:03:05Z</time></trkpt>
	<trkpt lat="52.04817167" lon="-1.751626667"><ele>122.000000</ele><time>2010-05-05T11:03:35Z</time></trkpt>
	<trkpt lat="52.04825333" lon="-1.751696667"><ele>122.000000</ele><time>2010-05-05T11:04:05Z</time></trkpt>
	<trkpt lat="52.048205" lon="-1.751833333"><ele>121.000000</ele><time>2010-05-05T11:04:35Z</time></trkpt>
	<trkpt lat="52.048195" lon="-1.751881667"><ele>121.000000</ele><time>2010-05-05T11:05:05Z</time></trkpt>
	<trkpt lat="52.04820167" lon="-1.751953333"><ele>119.000000</ele><time>2010-05-05T11:05:35Z</time></trkpt>
	<trkpt lat="52.048185" lon="-1.752021667"><ele>118.000000</ele><time>2010-05-05T11:06:05Z</time></trkpt>
	<trkpt lat="52.04818167" lon="-1.752271667"><ele>118.000000</ele><time>2010-05-05T11:06:35Z</time></trkpt>
	<trkpt lat="52.04814" lon="-1.752711667"><ele>117.000000</ele><time>2010-05-05T11:07:05Z</time></trkpt>
	<trkpt lat="52.04809" lon="-1.753183333"><ele>118.000000</ele><time>2010-05-05T11:07:35Z</time></trkpt>
	<trkpt lat="52.04802833" lon="-1.753645"><ele>119.000000</ele><time>2010-05-05T11:08:05Z</time></trkpt>
	<trkpt lat="52.047965" lon="-1.75413"><ele>120.000000</ele><time>2010-05-05T11:08:35Z</time></trkpt>
	<trkpt lat="52.047905" lon="-1.75459"><ele>120.000000</ele><time>2010-05-05T11:09:05Z</time></trkpt>
	<trkpt lat="52.04783667" lon="-1.755058333"><ele>121.000000</ele><time>2010-05-05T11:09:35Z</time></trkpt>
	<trkpt lat="52.047765" lon="-1.755536667"><ele>123.000000</ele><time>2010-05-05T11:10:05Z</time></trkpt>
	<trkpt lat="52.047715" lon="-1.756013333"><ele>123.000000</ele><time>2010-05-05T11:10:35Z</time></trkpt>
	<trkpt lat="52.04766167" lon="-1.756413333"><ele>121.000000</ele><time>2010-05-05T11:11:05Z</time></trkpt>
	<trkpt lat="52.04762" lon="-1.756865"><ele>122.000000</ele><time>2010-05-05T11:11:35Z</time></trkpt>
	<trkpt lat="52.04758" lon="-1.757383333"><ele>122.000000</ele><time>2010-05-05T11:12:05Z</time></trkpt>
	<trkpt lat="52.04752833" lon="-1.757863333"><ele>123.000000</ele><time>2010-05-05T11:12:35Z</time></trkpt>
	<trkpt lat="52.04747667" lon="-1.758353333"><ele>123.000000</ele><time>2010-05-05T11:13:05Z</time></trkpt>
	<trkpt lat="52.04741333" lon="-1.758828333"><ele>122.000000</ele><time>2010-05-05T11:13:35Z</time></trkpt>
	<trkpt lat="52.04735167" lon="-1.759293333"><ele>120.000000</ele><time>2010-05-05T11:14:05Z</time></trkpt>
	<trkpt lat="52.04729833" lon="-1.759741667"><ele>122.000000</ele><time>2010-05-05T11:14:35Z</time></trkpt>
	<trkpt lat="52.04728833" lon="-1.75985"><ele>123.000000</ele><time>2010-05-05T11:15:05Z</time></trkpt>
	<trkpt lat="52.04727" lon="-1.760188333"><ele>125.000000</ele><time>2010-05-05T11:15:35Z</time></trkpt>
	<trkpt lat="52.04725333" lon="-1.760665"><ele>126.000000</ele><time>2010-05-05T11:16:05Z</time></trkpt>
	<trkpt lat="52.04723" lon="-1.761108333"><ele>126.000000</ele><time>2010-05-05T11:16:35Z</time></trkpt>
	<trkpt lat="52.04722667" lon="-1.761593333"><ele>126.000000</ele><time>2010-05-05T11:17:05Z</time></trkpt>
	<trkpt lat="52.04721333" lon="-1.761881667"><ele>126.000000</ele><time>2010-05-05T11:17:35Z</time></trkpt>
	<trkpt lat="52.04712833" lon="-1.762146667"><ele>127.000000</ele><time>2010-05-05T11:18:05Z</time></trkpt>
	<trkpt lat="52.04696667" lon="-1.762546667"><ele>127.000000</ele><time>2010-05-05T11:18:35Z</time></trkpt>
	<trkpt lat="52.04679167" lon="-1.76292"><ele>128.000000</ele><time>2010-05-05T11:19:05Z</time></trkpt>
	<trkpt lat="52.04666333" lon="-1.7632"><ele>129.000000</ele><time>2010-05-05T11:19:35Z</time></trkpt>
	<trkpt lat="52.046495" lon="-1.76362"><ele>129.000000</ele><time>2010-05-05T11:20:05Z</time></trkpt>
	<trkpt lat="52.04636833" lon="-1.763911667"><ele>130.000000</ele><time>2010-05-05T11:20:35Z</time></trkpt>
	<trkpt lat="52.04634333" lon="-1.763968333"><ele>130.000000</ele><time>2010-05-05T11:21:05Z</time></trkpt>
	<trkpt lat="52.04619" lon="-1.763823333"><ele>128.000000</ele><time>2010-05-05T11:21:35Z</time></trkpt>
	<trkpt lat="52.04597167" lon="-1.76394"><ele>129.000000</ele><time>2010-05-05T11:22:05Z</time></trkpt>
	<trkpt lat="52.04586167" lon="-1.764343333"><ele>132.000000</ele><time>2010-05-05T11:22:35Z</time></trkpt>
	<trkpt lat="52.04567833" lon="-1.76471"><ele>131.000000</ele><time>2010-05-05T11:23:05Z</time></trkpt>
	<trkpt lat="52.04540833" lon="-1.764965"><ele>132.000000</ele><time>2010-05-05T11:23:35Z</time></trkpt>
	<trkpt lat="52.04514667" lon="-1.76522"><ele>133.000000</ele><time>2010-05-05T11:24:05Z</time></trkpt>
	<trkpt lat="52.04490167" lon="-1.765541667"><ele>133.000000</ele><time>2010-05-05T11:24:35Z</time></trkpt>
	<trkpt lat="52.044675" lon="-1.76588"><ele>133.000000</ele><time>2010-05-05T11:25:05Z</time></trkpt>
	<trkpt lat="52.04444833" lon="-1.765968333"><ele>134.000000</ele><time>2010-05-05T11:25:35Z</time></trkpt>
	<trkpt lat="52.04423667" lon="-1.765973333"><ele>136.000000</ele><time>2010-05-05T11:26:05Z</time></trkpt>
	<trkpt lat="52.04398167" lon="-1.766158333"><ele>138.000000</ele><time>2010-05-05T11:26:35Z</time></trkpt>
	<trkpt lat="52.04372333" lon="-1.76638"><ele>140.000000</ele><time>2010-05-05T11:27:05Z</time></trkpt>
	<trkpt lat="52.04351833" lon="-1.76655"><ele>141.000000</ele><time>2010-05-05T11:27:35Z</time></trkpt>
	<trkpt lat="52.04332833" lon="-1.766663333"><ele>137.000000</ele><time>2010-05-05T11:28:05Z</time></trkpt>
	<trkpt lat="52.04303333" lon="-1.766786667"><ele>138.000000</ele><time>2010-05-05T11:28:35Z</time></trkpt>
	<trkpt lat="52.04272167" lon="-1.766973333"><ele>137.000000</ele><time>2010-05-05T11:29:05Z</time></trkpt>
	<trkpt lat="52.04246167" lon="-1.767156667"><ele>141.000000</ele><time>2010-05-05T11:29:35Z</time></trkpt>
	<trkpt lat="52.04223833" lon="-1.767315"><ele>146.000000</ele><time>2010-05-05T11:30:05Z</time></trkpt>
	<trkpt lat="52.041965" lon="-1.767498333"><ele>147.000000</ele><time>2010-05-05T11:30:35Z</time></trkpt>
	<trkpt lat="52.04170333" lon="-1.767615"><ele>150.000000</ele><time>2010-05-05T11:31:05Z</time></trkpt>
	<trkpt lat="52.04139" lon="-1.767771667"><ele>146.000000</ele><time>2010-05-05T11:31:35Z</time></trkpt>
	<trkpt lat="52.04112333" lon="-1.767893333"><ele>145.000000</ele><time>2010-05-05T11:32:05Z</time></trkpt>
	<trkpt lat="52.04092833" lon="-1.768181667"><ele>141.000000</ele><time>2010-05-05T11:32:35Z</time></trkpt>
	<trkpt lat="52.040785" lon="-1.768483333"><ele>144.000000</ele><time>2010-05-05T11:33:05Z</time></trkpt>
	<trkpt lat="52.040655" lon="-1.76875"><ele>147.000000</ele><time>2010-05-05T11:33:35Z</time></trkpt>
	<trkpt lat="52.04050833" lon="-1.769058333"><ele>149.000000</ele><time>2010-05-05T11:34:05Z</time></trkpt>
	<trkpt lat="52.04035333" lon="-1.769388333"><ele>152.000000</ele><time>2010-05-05T11:34:35Z</time></trkpt>
	<trkpt lat="52.040285" lon="-1.769483333"><ele>153.000000</ele><time>2010-05-05T11:35:05Z</time></trkpt>
	<trkpt lat="52.0403" lon="-1.769511667"><ele>152.000000</ele><time>2010-05-05T11:35:35Z</time></trkpt>
	<trkpt lat="52.040315" lon="-1.769793333"><ele>158.000000</ele><time>2010-05-05T11:36:05Z</time></trkpt>
	<trkpt lat="52.040545" lon="-1.769936667"><ele>165.000000</ele><time>2010-05-05T11:36:35Z</time></trkpt>
	<trkpt lat="52.04072" lon="-1.770126667"><ele>163.000000</ele><time>2010-05-05T11:37:05Z</time></trkpt>
	<trkpt lat="52.04074667" lon="-1.770596667"><ele>161.000000</ele><time>2010-05-05T11:37:35Z</time></trkpt>
	<trkpt lat="52.04065" lon="-1.770775"><ele>162.000000</ele><time>2010-05-05T11:38:05Z</time></trkpt>
	<trkpt lat="52.04043333" lon="-1.770885"><ele>166.000000</ele><time>2010-05-05T11:38:35Z</time></trkpt>
	<trkpt lat="52.040175" lon="-1.771191667"><ele>163.000000</ele><time>2010-05-05T11:39:05Z</time></trkpt>
	<trkpt lat="52.03992333" lon="-1.771281667"><ele>161.000000</ele><time>2010-05-05T11:39:35Z</time></trkpt>
	<trkpt lat="52.03976667" lon="-1.77086"><ele>170.000000</ele><time>2010-05-05T11:40:05Z</time></trkpt>
	<trkpt lat="52.03956667" lon="-1.77081"><ele>167.000000</ele><time>2010-05-05T11:40:35Z</time></trkpt>
	<trkpt lat="52.03936667" lon="-1.770763333"><ele>166.000000</ele><time>2010-05-05T11:41:05Z</time></trkpt>
	<trkpt lat="52.039155" lon="-1.770796667"><ele>160.000000</ele><time>2010-05-05T11:41:35Z</time></trkpt>
	<trkpt lat="52.03889667" lon="-1.770931667"><ele>158.000000</ele><time>2010-05-05T11:42:05Z</time></trkpt>
	<trkpt lat="52.0387" lon="-1.771043333"><ele>158.000000</ele><time>2010-05-05T11:42:35Z</time></trkpt>
	<trkpt lat="52.03877" lon="-1.771"><ele>159.000000</ele><time>2010-05-05T11:43:05Z</time></trkpt>
	<trkpt lat="52.03877" lon="-1.771003333"><ele>158.000000</ele><time>2010-05-05T11:43:35Z</time></trkpt>
	<trkpt lat="52.03864833" lon="-1.771065"><ele>158.000000</ele><time>2010-05-05T11:44:05Z</time></trkpt>
	<trkpt lat="52.03873167" lon="-1.77171"><ele>158.000000</ele><time>2010-05-05T11:44:35Z</time></trkpt>
	<trkpt lat="52.03904333" lon="-1.771778333"><ele>161.000000</ele><time>2010-05-05T11:45:05Z</time></trkpt>
	<trkpt lat="52.039135" lon="-1.771713333"><ele>161.000000</ele><time>2010-05-05T11:45:35Z</time></trkpt>
</trkseg>
</trk>
</gpx>
